createdAt,value
2022-10-21T00:00:13.878Z,95513.56
2022-10-21T00:02:15.480Z,95511.88
2022-10-21T00:04:17.068Z,95499.91
2022-10-21T00:06:18.702Z,95502.13
2022-10-21T00:08:20.856Z,95504.44
2022-10-21T00:10:22.657Z,95502.81
2022-10-21T00:12:24.327Z,95495.34
2022-10-21T00:14:25.933Z,95496.84
2022-10-21T00:16:27.541Z,95501.81
2022-10-21T00:18:29.730Z,95497.16
2022-10-21T00:20:33.637Z,95497.66
2022-10-21T00:22:38.033Z,95493.38
2022-10-21T00:24:39.852Z,95497.78
2022-10-21T00:26:41.474Z,95499.59
2022-10-21T00:28:43.444Z,95490.88
2022-10-21T00:30:46.062Z,95493.94
2022-10-21T00:32:47.670Z,95486.78
2022-10-21T00:34:49.292Z,95489.38
2022-10-21T00:36:50.957Z,95489.66
2022-10-21T00:38:53.609Z,95497.09
2022-10-21T00:40:55.428Z,95492.16
2022-10-21T00:42:57.034Z,95488.94
2022-10-21T00:45:07.438Z,95491.25
2022-10-21T00:47:16.125Z,95488.94
2022-10-21T00:49:36.756Z,95483.34
2022-10-21T00:51:38.640Z,95489.66
2022-10-21T00:53:43.030Z,95477.13
2022-10-21T00:55:51.886Z,95482.59
2022-10-21T00:57:53.809Z,95481.94
2022-10-21T00:59:59.355Z,95486.25
2022-10-21T01:02:00.932Z,95483.03
2022-10-21T01:04:03.965Z,95482.63
2022-10-21T01:06:08.802Z,95480.75
2022-10-21T01:08:10.571Z,95475.31
2022-10-21T01:10:12.289Z,95473.53
2022-10-21T01:12:36.947Z,95478.56
2022-10-21T01:14:41.237Z,95480.28
2022-10-21T01:16:48.325Z,95476.44
2022-10-21T01:19:01.991Z,95488.31
2022-10-21T01:21:18.892Z,95487.09
2022-10-21T01:23:28.459Z,95486.69
2022-10-21T01:26:00.339Z,95487.84
2022-10-21T01:28:36.196Z,95492.78
2022-10-21T01:30:58.131Z,95493.88
2022-10-21T01:33:08.610Z,95497.03
2022-10-21T01:35:25.345Z,95492.06
2022-10-21T01:37:48.812Z,95496.59
2022-10-21T01:39:53.644Z,95494.22
2022-10-21T01:41:59.835Z,95491.63
2022-10-21T01:44:10.055Z,95496.03
2022-10-21T01:46:25.036Z,95502.34
2022-10-21T01:48:33.689Z,95495.97
2022-10-21T01:50:39.554Z,95494.84
2022-10-21T01:52:42.916Z,95502.78
2022-10-21T01:54:46.403Z,95506.09
2022-10-21T01:56:48.999Z,95499.53
2022-10-21T01:58:51.105Z,95496.34
2022-10-21T02:00:54.398Z,95496.13
2022-10-21T02:02:56.241Z,95502.19
2022-10-21T02:04:59.504Z,95501.50
2022-10-21T02:07:01.408Z,95497.66
2022-10-21T02:09:03.213Z,95502.31
2022-10-21T02:11:07.586Z,95496.59
2022-10-21T02:13:11.537Z,95506.03
2022-10-21T02:15:15.239Z,95499.06
2022-10-21T02:17:18.901Z,95504.03
2022-10-21T02:19:21.165Z,95496.75
2022-10-21T02:21:23.941Z,95500.53
2022-10-21T02:23:39.339Z,95504.66
2022-10-21T02:25:42.754Z,95505.50
2022-10-21T02:27:44.772Z,95507.03
2022-10-21T02:29:47.523Z,95502.94
2022-10-21T02:32:15.686Z,95510.56
2022-10-21T02:34:27.721Z,95511.19
2022-10-21T02:36:34.132Z,95511.25
2022-10-21T02:38:52.871Z,95511.28
2022-10-21T02:40:56.261Z,95515.34
2022-10-21T02:43:13.958Z,95517.25
2022-10-21T02:45:16.839Z,95518.44
2022-10-21T02:47:18.550Z,95518.66
2022-10-21T02:49:20.160Z,95520.19
2022-10-21T02:51:21.845Z,95519.72
2022-10-21T02:53:23.548Z,95526.50
2022-10-21T02:55:25.238Z,95530.63
2022-10-21T02:57:26.829Z,95526.47
2022-10-21T02:59:28.375Z,95523.34
2022-10-21T03:01:30.140Z,95518.94
2022-10-21T03:03:31.972Z,95517.84
2022-10-21T03:05:33.591Z,95516.97
2022-10-21T03:07:36.052Z,95515.88
2022-10-21T03:09:37.866Z,95521.34
2022-10-21T03:11:39.524Z,95525.28
2022-10-21T03:13:41.199Z,95533.38
2022-10-21T03:15:42.892Z,95526.72
2022-10-21T03:17:44.649Z,95532.66
2022-10-21T03:19:46.250Z,95528.50
2022-10-21T03:21:47.936Z,95535.38
2022-10-21T03:23:49.575Z,95532.03
2022-10-21T03:25:51.249Z,95532.91
2022-10-21T03:27:52.936Z,95529.81
2022-10-21T03:29:54.601Z,95527.41
2022-10-21T03:31:56.258Z,95528.47
2022-10-21T03:33:57.987Z,95525.25
2022-10-21T03:35:59.613Z,95526.53
2022-10-21T03:38:01.324Z,95535.66
2022-10-21T03:40:05.420Z,95531.75
2022-10-21T03:42:09.154Z,95527.56
2022-10-21T03:44:10.825Z,95531.97
2022-10-21T03:46:12.416Z,95535.13
2022-10-21T03:48:14.167Z,95535.84
2022-10-21T03:50:18.366Z,95530.50
2022-10-21T03:52:23.877Z,95529.44
2022-10-21T03:54:25.525Z,95533.81
2022-10-21T03:56:27.318Z,95538.66
2022-10-21T03:58:28.918Z,95538.78
2022-10-21T04:00:31.720Z,95538.22
2022-10-21T04:02:33.575Z,95541.78
2022-10-21T04:04:35.234Z,95536.56
2022-10-21T04:06:39.280Z,95539.03
2022-10-21T04:08:40.992Z,95536.66
2022-10-21T04:10:42.739Z,95534.19
2022-10-21T04:12:44.383Z,95536.94
2022-10-21T04:14:46.014Z,95532.31
2022-10-21T04:16:48.017Z,95537.88
2022-10-21T04:18:49.826Z,95533.22
2022-10-21T04:20:51.452Z,95536.31
2022-10-21T04:22:53.076Z,95538.94
2022-10-21T04:24:54.765Z,95534.53
2022-10-21T04:26:56.780Z,95531.91
2022-10-21T04:28:58.396Z,95532.84
2022-10-21T04:31:00.087Z,95534.28
2022-10-21T04:33:01.938Z,95536.75
2022-10-21T04:35:03.764Z,95539.97
2022-10-21T04:37:05.517Z,95529.84
2022-10-21T04:39:07.360Z,95529.38
2022-10-21T04:41:08.939Z,95534.38
2022-10-21T04:43:10.498Z,95535.06
2022-10-21T04:45:12.326Z,95535.06
2022-10-21T04:47:13.889Z,95535.19
2022-10-21T04:49:15.515Z,95535.44
2022-10-21T04:51:17.256Z,95539.13
2022-10-21T04:53:18.953Z,95540.78
2022-10-21T04:55:20.550Z,95541.41
2022-10-21T04:57:22.156Z,95538.22
2022-10-21T04:59:23.769Z,95539.03
2022-10-21T05:01:25.594Z,95544.25
2022-10-21T05:03:27.235Z,95539.59
2022-10-21T05:05:28.977Z,95534.16
2022-10-21T05:07:30.682Z,95542.00
2022-10-21T05:09:32.317Z,95536.75
2022-10-21T05:11:33.904Z,95538.63
2022-10-21T05:13:35.503Z,95543.34
2022-10-21T05:15:37.095Z,95547.28
2022-10-21T05:17:39.024Z,95545.94
2022-10-21T05:19:40.910Z,95541.19
2022-10-21T05:21:42.623Z,95535.91
2022-10-21T05:23:44.281Z,95540.34
2022-10-21T05:25:46.683Z,95543.88
2022-10-21T05:27:48.372Z,95539.56
2022-10-21T05:29:50.006Z,95545.38
2022-10-21T05:31:52.007Z,95540.16
2022-10-21T05:33:53.622Z,95535.00
2022-10-21T05:36:01.070Z,95537.16
2022-10-21T05:38:04.461Z,95543.91
2022-10-21T05:40:06.893Z,95549.22
2022-10-21T05:42:08.499Z,95546.09
2022-10-21T05:44:10.337Z,95552.31
2022-10-21T05:46:11.962Z,95554.97
2022-10-21T05:48:17.803Z,95553.38
2022-10-21T05:50:19.762Z,95558.63
2022-10-21T05:52:21.481Z,95552.88
2022-10-21T05:54:23.256Z,95554.81
2022-10-21T05:56:25.010Z,95560.22
2022-10-21T05:58:27.679Z,95566.00
2022-10-21T06:00:29.449Z,95572.31
2022-10-21T06:02:31.126Z,95571.38
2022-10-21T06:04:37.790Z,95571.91
2022-10-21T06:06:40.505Z,95576.91
2022-10-21T06:08:42.144Z,95584.63
2022-10-21T06:10:44.553Z,95584.06
2022-10-21T06:12:46.275Z,95587.16
2022-10-21T06:14:47.855Z,95592.56
2022-10-21T06:16:49.710Z,95600.13
2022-10-21T06:18:51.408Z,95597.91
2022-10-21T06:20:53.199Z,95594.78
2022-10-21T06:22:54.844Z,95593.59
2022-10-21T06:24:56.414Z,95593.63
2022-10-21T06:26:58.044Z,95598.44
2022-10-21T06:28:59.769Z,95601.97
2022-10-21T06:31:01.556Z,95599.25
2022-10-21T06:33:03.219Z,95597.63
2022-10-21T06:35:05.080Z,95601.00
2022-10-21T06:37:06.667Z,95605.94
2022-10-21T06:39:08.661Z,95599.34
2022-10-21T06:41:13.639Z,95604.47
2022-10-21T06:43:16.762Z,95602.44
2022-10-21T06:45:18.470Z,95602.38
2022-10-21T06:47:20.112Z,95604.63
2022-10-21T06:49:21.747Z,95603.22
2022-10-21T06:51:24.591Z,95604.59
2022-10-21T06:53:26.316Z,95611.22
2022-10-21T06:55:27.961Z,95604.59
2022-10-21T06:57:29.764Z,95614.63
2022-10-21T06:59:31.679Z,95610.59
2022-10-21T07:01:48.375Z,95615.06
2022-10-21T07:03:55.541Z,95611.81
2022-10-21T07:06:00.648Z,95611.03
2022-10-21T07:08:02.816Z,95611.72
2022-10-21T07:10:05.092Z,95605.03
2022-10-21T07:12:06.718Z,95614.19
2022-10-21T07:14:08.366Z,95616.41
2022-10-21T07:16:39.462Z,95602.97
2022-10-21T07:18:42.646Z,95612.56
2022-10-21T07:20:44.402Z,95607.31
2022-10-21T07:22:46.169Z,95611.31
2022-10-21T07:24:47.816Z,95605.56
2022-10-21T07:26:49.889Z,95613.09
2022-10-21T07:28:52.433Z,95610.63
2022-10-21T07:30:54.021Z,95609.66
2022-10-21T07:33:01.851Z,95602.03
2022-10-21T07:35:03.897Z,95606.53
2022-10-21T07:37:05.534Z,95600.09
2022-10-21T07:39:10.632Z,95608.09
2022-10-21T07:41:24.045Z,95606.84
2022-10-21T07:43:25.766Z,95603.88
2022-10-21T07:45:27.385Z,95606.25
2022-10-21T07:47:29.078Z,95607.53
2022-10-21T07:49:30.883Z,95595.03
2022-10-21T07:51:32.559Z,95597.06
2022-10-21T07:53:34.559Z,95596.38
2022-10-21T07:55:36.203Z,95603.94
2022-10-21T07:57:37.975Z,95600.75
2022-10-21T07:59:39.633Z,95606.34
2022-10-21T08:01:44.867Z,95600.63
2022-10-21T08:03:47.283Z,95600.69
2022-10-21T08:05:48.876Z,95593.03
2022-10-21T08:07:50.982Z,95596.81
2022-10-21T08:09:52.578Z,95592.09
2022-10-21T08:11:54.211Z,95583.84
2022-10-21T08:13:57.146Z,95593.88
2022-10-21T08:15:59.225Z,95587.66
2022-10-21T08:18:00.837Z,95582.41
2022-10-21T08:20:02.743Z,95587.34
2022-10-21T08:22:04.865Z,95581.09
2022-10-21T08:24:06.694Z,95576.09
2022-10-21T08:26:10.888Z,95580.91
2022-10-21T08:28:12.516Z,95583.44
2022-10-21T08:30:15.717Z,95578.66
2022-10-21T08:32:17.294Z,95569.72
2022-10-21T08:34:18.914Z,95573.91
2022-10-21T08:36:23.104Z,95571.44
2022-10-21T08:38:24.762Z,95574.38
2022-10-21T08:40:30.025Z,95581.31
2022-10-21T08:42:31.959Z,95586.97
2022-10-21T08:45:09.420Z,95581.88
2022-10-21T08:47:21.320Z,95578.53
2022-10-21T08:49:30.846Z,95576.31
2022-10-21T08:51:36.316Z,95576.88
2022-10-21T08:53:41.653Z,95574.53
2022-10-21T08:55:45.501Z,95570.91
2022-10-21T08:57:50.425Z,95565.50
2022-10-21T08:59:52.135Z,95562.41
2022-10-21T09:02:16.435Z,95565.19
2022-10-21T09:04:52.016Z,95563.00
2022-10-21T09:07:02.878Z,95560.56
2022-10-21T09:09:14.503Z,95545.47
2022-10-21T09:11:19.670Z,95543.31
2022-10-21T09:13:38.266Z,95537.06
2022-10-21T09:16:01.454Z,95537.09
2022-10-21T09:18:21.205Z,95538.00
2022-10-21T09:21:20.511Z,95541.59
2022-10-21T09:23:58.685Z,95544.69
2022-10-21T09:26:01.263Z,95536.22
2022-10-21T09:28:28.473Z,95532.06
2022-10-21T09:30:30.122Z,95520.94
2022-10-21T09:32:38.833Z,95516.69
2022-10-21T09:34:49.321Z,95510.63
2022-10-21T09:36:52.413Z,95515.59
2022-10-21T09:39:01.761Z,95516.94
2022-10-21T09:41:06.065Z,95521.03
2022-10-21T09:43:16.587Z,95525.50
2022-10-21T09:45:35.874Z,95526.13
2022-10-21T09:47:37.462Z,95525.13
2022-10-21T09:50:05.992Z,95529.56
2022-10-21T09:52:03.634Z,95519.31
2022-10-21T09:54:10.283Z,95529.53
2022-10-21T09:56:24.154Z,95527.75
2022-10-21T09:58:27.988Z,95529.56
2022-10-21T10:00:48.319Z,95525.91
2022-10-21T10:02:49.977Z,95521.53
2022-10-21T10:04:51.690Z,95520.22
2022-10-21T10:06:53.871Z,95510.44
2022-10-21T10:09:14.058Z,95504.91
2022-10-21T10:11:18.784Z,95499.31
2022-10-21T10:13:20.595Z,95503.16
2022-10-21T10:15:30.781Z,95498.59
2022-10-21T10:17:37.248Z,95493.84
2022-10-21T10:19:38.859Z,95500.78
2022-10-21T10:21:40.542Z,95500.91
2022-10-21T10:24:02.696Z,95493.97
2022-10-21T10:26:04.411Z,95497.81
2022-10-21T10:28:08.796Z,95497.06
2022-10-21T10:30:14.056Z,95490.34
2022-10-21T10:32:16.482Z,95491.03
2022-10-21T10:34:23.738Z,95482.59
2022-10-21T10:36:29.191Z,95488.84
2022-10-21T10:38:53.015Z,95482.06
2022-10-21T10:40:56.427Z,95481.97
2022-10-21T10:43:07.654Z,95476.06
2022-10-21T10:45:20.365Z,95470.56
2022-10-21T10:47:26.909Z,95459.66
2022-10-21T10:49:35.169Z,95457.56
2022-10-21T10:51:36.877Z,95450.56
2022-10-21T10:53:38.695Z,95444.78
2022-10-21T10:55:44.013Z,95440.81
2022-10-21T10:57:59.094Z,95444.81
2022-10-21T11:00:19.853Z,95441.84
2022-10-21T11:02:39.987Z,95437.38
2022-10-21T11:04:43.833Z,95429.97
2022-10-21T11:06:51.529Z,95434.66
2022-10-21T11:08:55.933Z,95433.91
2022-10-21T11:11:01.338Z,95427.69
2022-10-21T11:13:05.540Z,95417.28
2022-10-21T11:15:12.405Z,95420.03
2022-10-21T11:17:17.030Z,95417.19
2022-10-21T11:19:43.820Z,95422.38
2022-10-21T11:21:53.552Z,95413.97
2022-10-21T11:24:16.594Z,95409.69
2022-10-21T11:26:34.008Z,95407.00
2022-10-21T11:28:47.602Z,95411.28
2022-10-21T11:31:21.841Z,95406.31
2022-10-21T11:33:44.505Z,95407.00
2022-10-21T11:36:15.377Z,95400.19
2022-10-21T11:38:29.129Z,95389.75
2022-10-21T11:40:36.293Z,95395.38
2022-10-21T11:42:43.399Z,95395.13
2022-10-21T11:45:12.855Z,95387.25
2022-10-21T11:47:42.066Z,95394.66
2022-10-21T11:52:48.992Z,95370.31
2022-10-21T11:55:10.763Z,95373.72
2022-10-21T11:57:29.217Z,95371.94
2022-10-21T11:59:57.961Z,95364.09
2022-10-21T12:02:17.877Z,95364.47
2022-10-21T12:04:28.802Z,95361.19
2022-10-21T12:06:45.191Z,95355.09
2022-10-21T12:09:06.746Z,95356.59
2022-10-21T12:11:22.539Z,95346.47
2022-10-21T12:13:33.930Z,95347.94
2022-10-21T12:15:41.854Z,95330.25
2022-10-21T12:17:44.558Z,95330.66
2022-10-21T12:19:54.455Z,95335.41
2022-10-21T12:21:56.155Z,95336.59
2022-10-21T12:24:34.119Z,95333.16
2022-10-21T12:26:40.539Z,95330.59
2022-10-21T12:28:57.194Z,95338.09
2022-10-21T12:31:13.729Z,95333.06
2022-10-21T12:33:25.173Z,95342.00
2022-10-21T12:35:46.515Z,95334.44
2022-10-21T12:37:53.328Z,95337.16
2022-10-21T12:40:09.924Z,95339.53
2022-10-21T12:42:15.363Z,95334.88
2022-10-21T12:44:21.941Z,95336.53
2022-10-21T12:46:26.462Z,95333.59
2022-10-21T12:48:34.598Z,95333.31
2022-10-21T12:50:36.336Z,95330.56
2022-10-21T12:52:39.039Z,95326.53
2022-10-21T12:54:54.338Z,95325.91
2022-10-21T12:57:01.878Z,95321.75
2022-10-21T12:59:06.845Z,95325.06
2022-10-21T13:01:34.165Z,95325.94
2022-10-21T13:03:45.016Z,95321.66
2022-10-21T13:05:46.589Z,95317.97
2022-10-21T13:08:20.131Z,95322.25
2022-10-21T13:10:25.355Z,95325.69
2022-10-21T13:12:31.465Z,95320.69
2022-10-21T13:14:48.540Z,95314.78
2022-10-21T13:16:50.157Z,95313.31
2022-10-21T13:19:06.081Z,95312.06
2022-10-21T13:21:23.257Z,95316.38
2022-10-21T13:23:32.967Z,95311.41
2022-10-21T13:25:38.261Z,95316.72
2022-10-21T13:27:40.411Z,95315.56
2022-10-21T13:29:47.032Z,95308.50
2022-10-21T13:32:14.101Z,95310.25
2022-10-21T13:34:28.459Z,95310.97
2022-10-21T13:36:42.945Z,95309.19
2022-10-21T13:38:53.040Z,95312.03
2022-10-21T13:41:05.564Z,95313.13
2022-10-21T13:43:16.247Z,95309.91
2022-10-21T13:45:30.879Z,95318.88
2022-10-21T13:47:35.212Z,95319.94
2022-10-21T13:49:36.876Z,95313.28
2022-10-21T13:51:45.857Z,95314.38
2022-10-21T13:53:48.866Z,95311.50
2022-10-21T13:56:23.967Z,95299.91
2022-10-21T13:58:26.925Z,95307.16
2022-10-21T14:00:30.739Z,95304.50
2022-10-21T14:02:32.449Z,95312.63
2022-10-21T14:04:34.748Z,95313.69
2022-10-21T14:06:40.962Z,95310.81
2022-10-21T14:08:44.634Z,95305.00
2022-10-21T14:10:46.780Z,95305.44
2022-10-21T14:12:49.012Z,95311.44
2022-10-21T14:14:51.814Z,95312.81
2022-10-21T14:16:56.965Z,95314.09
2022-10-21T14:18:59.489Z,95313.34
2022-10-21T14:23:21.725Z,95309.66
2022-10-21T14:25:23.413Z,95304.59
2022-10-21T14:27:30.611Z,95304.78
2022-10-21T14:29:35.029Z,95303.56
2022-10-21T14:31:36.700Z,95305.06
2022-10-21T14:33:43.441Z,95302.69
2022-10-21T14:35:45.055Z,95303.75
2022-10-21T14:37:49.045Z,95301.53
2022-10-21T14:39:50.742Z,95296.44
2022-10-21T14:41:52.476Z,95306.66
2022-10-21T14:43:54.679Z,95300.97
2022-10-21T14:45:56.475Z,95306.72
2022-10-21T14:48:08.353Z,95309.34
2022-10-21T14:50:18.907Z,95309.94
2022-10-21T14:52:42.929Z,95312.69
2022-10-21T14:54:47.286Z,95312.56
2022-10-21T14:56:49.095Z,95311.03
2022-10-21T14:58:57.038Z,95315.41
2022-10-21T15:01:00.420Z,95319.66
2022-10-21T15:03:02.148Z,95313.09
2022-10-21T15:05:34.641Z,95317.94
2022-10-21T15:07:38.798Z,95309.53
2022-10-21T15:10:18.965Z,95310.66
2022-10-21T15:12:20.556Z,95308.31
2022-10-21T15:14:28.843Z,95306.97
2022-10-21T15:16:30.761Z,95318.84
2022-10-21T15:18:43.816Z,95315.97
2022-10-21T15:20:50.653Z,95315.44
2022-10-21T15:22:53.425Z,95317.69
2022-10-21T15:24:58.906Z,95324.06
2022-10-21T15:27:01.801Z,95325.16
2022-10-21T15:29:14.901Z,95323.56
2022-10-21T15:31:23.860Z,95321.66
2022-10-21T15:33:27.388Z,95320.25
2022-10-21T15:35:28.941Z,95320.16
2022-10-21T15:37:30.532Z,95325.16
2022-10-21T15:39:32.275Z,95322.56
2022-10-21T15:41:33.986Z,95321.47
2022-10-21T15:43:35.590Z,95325.81
2022-10-21T15:45:37.294Z,95324.50
2022-10-21T15:47:39.070Z,95322.41
2022-10-21T15:49:45.955Z,95327.41
2022-10-21T15:51:48.690Z,95331.38
2022-10-21T15:53:50.313Z,95332.72
2022-10-21T15:55:51.877Z,95330.59
2022-10-21T15:57:53.797Z,95336.41
2022-10-21T15:59:55.394Z,95338.72
2022-10-21T16:01:58.059Z,95338.44
2022-10-21T16:04:00.086Z,95338.63
2022-10-21T16:06:01.672Z,95345.25
2022-10-21T16:08:03.406Z,95346.63
2022-10-21T16:10:32.707Z,95355.38
2022-10-21T16:12:34.380Z,95352.25
2022-10-21T16:14:36.014Z,95350.66
2022-10-21T16:16:39.226Z,95349.34
2022-10-21T16:18:40.887Z,95352.50
2022-10-21T16:20:43.243Z,95361.91
2022-10-21T16:22:45.106Z,95357.31
2022-10-21T16:24:46.732Z,95363.09
2022-10-21T16:26:49.208Z,95366.25
2022-10-21T16:28:52.328Z,95358.66
2022-10-21T16:30:53.979Z,95358.84
2022-10-21T16:32:57.252Z,95359.00
2022-10-21T16:34:59.087Z,95361.81
2022-10-21T16:37:01.611Z,95372.03
2022-10-21T16:39:17.638Z,95376.66
2022-10-21T16:41:21.684Z,95368.59
2022-10-21T16:43:24.073Z,95370.06
2022-10-21T16:45:29.045Z,95374.84
2022-10-21T16:47:30.865Z,95371.69
2022-10-21T16:49:33.122Z,95375.66
2022-10-21T16:51:36.506Z,95373.22
2022-10-21T16:53:38.532Z,95378.47
2022-10-21T16:55:40.185Z,95370.88
2022-10-21T16:57:42.313Z,95372.38
2022-10-21T16:59:44.136Z,95370.41
2022-10-21T17:01:45.955Z,95372.53
2022-10-21T17:03:47.560Z,95375.31
2022-10-21T17:05:52.580Z,95372.22
2022-10-21T17:07:54.976Z,95369.75
2022-10-21T17:09:56.569Z,95375.34
2022-10-21T17:11:58.144Z,95373.22
2022-10-21T17:14:01.006Z,95373.84
2022-10-21T17:16:02.676Z,95380.81
2022-10-21T17:18:04.283Z,95387.25
2022-10-21T17:20:06.441Z,95388.56
2022-10-21T17:22:13.819Z,95391.53
2022-10-21T17:24:17.732Z,95386.47
2022-10-21T17:26:19.621Z,95395.31
2022-10-21T17:28:21.620Z,95404.09
2022-10-21T17:30:24.054Z,95402.44
2022-10-21T17:32:25.664Z,95395.19
2022-10-21T17:34:32.579Z,95401.78
2022-10-21T17:36:38.103Z,95397.41
2022-10-21T17:38:40.125Z,95395.78
2022-10-21T17:40:41.882Z,95398.25
2022-10-21T17:42:43.600Z,95404.84
2022-10-21T17:44:45.281Z,95399.06
2022-10-21T17:46:54.368Z,95407.81
2022-10-21T17:48:57.512Z,95402.31
2022-10-21T17:51:01.658Z,95399.72
2022-10-21T17:53:03.310Z,95401.88
2022-10-21T17:55:06.268Z,95407.63
2022-10-21T17:57:07.993Z,95411.13
2022-10-21T17:59:10.030Z,95407.47
2022-10-21T18:01:13.335Z,95424.69
2022-10-21T18:03:18.065Z,95420.72
2022-10-21T18:05:19.850Z,95432.59
2022-10-21T18:07:22.000Z,95423.41
2022-10-21T18:09:23.746Z,95427.66
2022-10-21T18:11:26.073Z,95426.22
2022-10-21T18:13:30.020Z,95426.84
2022-10-21T18:15:31.709Z,95421.78
2022-10-21T18:17:34.513Z,95423.97
2022-10-21T18:19:36.351Z,95423.16
2022-10-21T18:21:38.987Z,95431.56
2022-10-21T18:23:41.873Z,95429.47
2022-10-21T18:25:43.567Z,95437.03
2022-10-21T18:27:45.167Z,95438.69
2022-10-21T18:29:46.945Z,95433.25
2022-10-21T18:31:48.641Z,95443.78
2022-10-21T18:33:50.188Z,95448.91
2022-10-21T18:35:51.875Z,95444.81
2022-10-21T18:37:53.532Z,95450.31
2022-10-21T18:39:58.146Z,95452.97
2022-10-21T18:42:00.876Z,95458.00
2022-10-21T18:44:08.211Z,95454.94
2022-10-21T18:46:09.967Z,95455.44
2022-10-21T18:48:11.578Z,95461.22
2022-10-21T18:50:14.346Z,95462.44
2022-10-21T18:52:15.917Z,95461.22
2022-10-21T18:54:17.628Z,95458.72
2022-10-21T18:56:20.128Z,95464.63
2022-10-21T18:58:21.746Z,95470.97
2022-10-21T19:00:23.341Z,95468.06
2022-10-21T19:02:25.208Z,95464.31
2022-10-21T19:04:26.975Z,95464.66
2022-10-21T19:06:42.943Z,95463.38
2022-10-21T19:08:44.948Z,95475.03
2022-10-21T19:10:47.079Z,95467.69
2022-10-21T19:12:48.766Z,95465.06
2022-10-21T19:14:50.799Z,95467.69
2022-10-21T19:16:52.425Z,95466.88
2022-10-21T19:18:54.853Z,95464.88
2022-10-21T19:20:56.835Z,95470.66
2022-10-21T19:22:58.450Z,95468.03
2022-10-21T19:25:00.157Z,95468.19
2022-10-21T19:27:01.796Z,95469.84
2022-10-21T19:29:08.790Z,95473.63
2022-10-21T19:31:13.488Z,95479.00
2022-10-21T19:33:15.053Z,95478.19
2022-10-21T19:35:16.719Z,95477.47
2022-10-21T19:37:18.407Z,95485.97
2022-10-21T19:39:20.187Z,95485.47
2022-10-21T19:41:22.986Z,95485.63
2022-10-21T19:43:25.821Z,95482.63
2022-10-21T19:45:27.548Z,95482.16
2022-10-21T19:47:31.209Z,95493.50
2022-10-21T19:49:33.170Z,95498.03
2022-10-21T19:51:35.530Z,95504.09
2022-10-21T19:53:37.188Z,95502.84
2022-10-21T19:55:38.941Z,95495.16
2022-10-21T19:57:40.808Z,95501.16
2022-10-21T19:59:42.424Z,95498.78
2022-10-21T20:01:44.180Z,95507.69
2022-10-21T20:03:47.101Z,95501.13
2022-10-21T20:05:48.667Z,95497.66
2022-10-21T20:07:50.235Z,95485.38
2022-10-21T20:09:51.945Z,95501.34
2022-10-21T20:11:55.010Z,95497.09
2022-10-21T20:13:56.806Z,95496.47
2022-10-21T20:15:59.291Z,95495.88
2022-10-21T20:18:01.008Z,95500.19
2022-10-21T20:20:02.590Z,95501.31
2022-10-21T20:22:04.425Z,95501.31
2022-10-21T20:24:06.309Z,95500.47
2022-10-21T20:26:08.137Z,95507.06
2022-10-21T20:28:09.809Z,95500.88
2022-10-21T20:30:11.852Z,95514.69
2022-10-21T20:32:13.447Z,95510.25
2022-10-21T20:34:15.269Z,95499.75
2022-10-21T20:36:23.040Z,95499.19
2022-10-21T20:38:24.668Z,95494.84
2022-10-21T20:40:27.531Z,95488.91
2022-10-21T20:42:29.116Z,95496.91
2022-10-21T20:44:30.742Z,95499.28
2022-10-21T20:46:35.270Z,95499.28
2022-10-21T20:48:40.830Z,95497.75
2022-10-21T20:50:42.539Z,95495.97
2022-10-21T20:52:44.210Z,95495.13
2022-10-21T20:54:45.823Z,95489.72
2022-10-21T20:56:47.425Z,95495.97
2022-10-21T20:58:49.056Z,95493.34
2022-10-21T21:00:50.724Z,95490.72
2022-10-21T21:02:52.367Z,95494.16
2022-10-21T21:04:55.164Z,95491.00
2022-10-21T21:06:56.803Z,95482.44
2022-10-21T21:09:28.874Z,95486.50
2022-10-21T21:11:20.081Z,95490.75
2022-10-21T21:13:21.665Z,95489.09
2022-10-21T21:15:23.293Z,95495.06
2022-10-21T21:17:25.129Z,95484.03
2022-10-21T21:19:26.839Z,95484.16
2022-10-21T21:21:29.328Z,95485.78
2022-10-21T21:23:31.009Z,95489.38
2022-10-21T21:25:32.642Z,95486.44
2022-10-21T21:27:34.266Z,95492.66
2022-10-21T21:29:36.232Z,95488.59
2022-10-21T21:31:38.730Z,95495.09
2022-10-21T21:33:40.659Z,95498.41
2022-10-21T21:35:42.275Z,95501.97
2022-10-21T21:37:43.944Z,95503.34
2022-10-21T21:39:45.503Z,95506.53
2022-10-21T21:41:47.170Z,95495.03
2022-10-21T21:43:50.408Z,95508.03
2022-10-21T21:45:51.989Z,95510.09
2022-10-21T21:47:53.599Z,95504.16
2022-10-21T21:49:55.211Z,95508.59
2022-10-21T21:51:56.819Z,95503.66
2022-10-21T21:53:59.029Z,95506.53
2022-10-21T21:56:03.328Z,95501.03
2022-10-21T21:58:05.681Z,95499.53
2022-10-21T22:00:08.015Z,95499.69
2022-10-21T22:02:10.067Z,95503.69
2022-10-21T22:04:11.615Z,95502.88
2022-10-21T22:06:14.124Z,95512.03
2022-10-21T22:08:15.796Z,95501.00
2022-10-21T22:10:17.915Z,95500.53
2022-10-21T22:12:22.932Z,95503.22
2022-10-21T22:14:24.875Z,95505.81
2022-10-21T22:16:30.293Z,95500.84
2022-10-21T22:18:32.508Z,95495.34
2022-10-21T22:20:34.163Z,95496.97
2022-10-21T22:22:36.145Z,95498.78
2022-10-21T22:24:38.135Z,95496.28
2022-10-21T22:26:39.772Z,95499.59
2022-10-21T22:28:42.224Z,95508.72
2022-10-21T22:30:43.884Z,95492.84
2022-10-21T22:32:45.530Z,95486.22
2022-10-21T22:34:47.187Z,95479.03
2022-10-21T22:36:49.019Z,95480.84
2022-10-21T22:38:50.647Z,95484.56
2022-10-21T22:40:56.666Z,95475.59
2022-10-21T22:42:58.349Z,95477.09
2022-10-21T22:45:00.065Z,95470.75
2022-10-21T22:47:01.681Z,95472.28
2022-10-21T22:49:06.519Z,95465.50
2022-10-21T22:51:08.111Z,95474.22
2022-10-21T22:53:09.992Z,95468.97
2022-10-21T22:55:11.728Z,95468.28
2022-10-21T22:57:13.349Z,95468.97
2022-10-21T22:59:14.969Z,95467.31
2022-10-21T23:01:16.574Z,95476.00
2022-10-21T23:03:19.766Z,95468.13
2022-10-21T23:05:21.426Z,95473.38
2022-10-21T23:07:23.116Z,95473.38
2022-10-21T23:09:24.902Z,95479.47
2022-10-21T23:11:27.084Z,95470.91
2022-10-21T23:13:28.944Z,95475.31
2022-10-21T23:15:30.533Z,95476.16
2022-10-21T23:17:32.152Z,95483.31
2022-10-21T23:19:33.808Z,95474.47
2022-10-21T23:21:35.815Z,95472.41
2022-10-21T23:23:37.498Z,95476.03
2022-10-21T23:25:39.111Z,95474.34
2022-10-21T23:27:40.787Z,95475.63
2022-10-21T23:29:42.671Z,95481.13
2022-10-21T23:31:44.325Z,95489.13
2022-10-21T23:33:45.870Z,95483.19
2022-10-21T23:35:47.482Z,95482.13
2022-10-21T23:37:49.129Z,95487.19
2022-10-21T23:39:50.744Z,95484.44
2022-10-21T23:41:52.315Z,95486.13
2022-10-21T23:43:54.210Z,95481.00
2022-10-21T23:45:56.153Z,95477.81
2022-10-21T23:47:57.844Z,95484.03
2022-10-21T23:49:59.675Z,95482.38
2022-10-21T23:52:01.632Z,95480.88
2022-10-21T23:54:03.304Z,95479.09
2022-10-21T23:56:05.512Z,95480.56
2022-10-21T23:58:07.752Z,95482.75
